KCIU/CIU METAR and TAF weather

Enter ICAO airport designator
Station Type Date Time Source
KCIU METAR 2021/05/14 12:56 UTC NOAA

KCIU 141256Z AUTO 20005KT 9SM CLR 12/02 A3025 RMK AO2 SLP246 T01220017


Station Type Date Time Source
KCIU Decoded METAR 2021/05/14 12:56 UTC NOAA

Sault Ste Marie, Chippewa County International Airport, MI, United States (KCIU) 46-15N 084-28W
May 14, 2021 - 08:56 AM EDT / 2021.05.14 1256 UTC
Wind: from the SSW (200 degrees) at 6 MPH (5 KT):0
Visibility: 9 mile(s):0
Sky conditions: clear
Temperature: 54.0 F (12.2 C)
Dew Point: 35.1 F (1.7 C)
Relative Humidity: 48%
Pressure (altimeter): 30.25 in. Hg (1024 hPa)
ob: KCIU 141256Z AUTO 20005KT 9SM CLR 12/02 A3025 RMK AO2 SLP246 T01220017
cycle: 13

Station Type Date Time Source
KCIU TAF UTC NOAA

Error!

Example: see airport list